sensor_id;sensor_type;location;lat;lon;timestamp;temperature;humidity
24772;DHT22;12870;52.274;9.754;2024-01-07T00:01:01;1.50;99.90
24772;DHT22;12870;52.274;9.754;2024-01-07T00:03:27;1.50;99.90
24772;DHT22;12870;52.274;9.754;2024-01-07T00:05:53;1.50;99.90
24772;DHT22;12870;52.274;9.754;2024-01-07T00:08:18;1.40;99.90
24772;DHT22;12870;52.274;9.754;2024-01-07T00:10:44;1.40;99.90
24772;DHT22;12870;52.274;9.754;2024-01-07T00:13:09;1.40;99.90
24772;DHT22;12870;52.274;9.754;2024-01-07T00:15:35;1.40;99.90
24772;DHT22;12870;52.274;9.754;2024-01-07T00:18:00;1.30;99.90
24772;DHT22;12870;52.274;9.754;2024-01-07T00:20:26;1.40;99.90
24772;DHT22;12870;52.274;9.754;2024-01-07T00:22:51;1.40;99.90
24772;DHT22;12870;52.274;9.754;2024-01-07T00:25:17;1.30;99.90
24772;DHT22;12870;52.274;9.754;2024-01-07T00:27:43;1.30;99.90
24772;DHT22;12870;52.274;9.754;2024-01-07T00:30:09;1.30;99.90
24772;DHT22;12870;52.274;9.754;2024-01-07T00:32:35;1.30;99.90
24772;DHT22;12870;52.274;9.754;2024-01-07T00:35:00;1.30;99.90
24772;DHT22;12870;52.274;9.754;2024-01-07T00:37:26;1.30;99.90
24772;DHT22;12870;52.274;9.754;2024-01-07T00:39:51;1.30;99.90
24772;DHT22;12870;52.274;9.754;2024-01-07T00:42:17;1.40;99.90
24772;DHT22;12870;52.274;9.754;2024-01-07T00:44:42;1.40;99.90
24772;DHT22;12870;52.274;9.754;2024-01-07T00:47:08;1.40;99.90
24772;DHT22;12870;52.274;9.754;2024-01-07T00:49:33;1.40;99.90
24772;DHT22;12870;52.274;9.754;2024-01-07T00:51:59;1.40;99.90
24772;DHT22;12870;52.274;9.754;2024-01-07T00:54:24;1.30;99.90
24772;DHT22;12870;52.274;9.754;2024-01-07T00:56:50;1.30;99.90
24772;DHT22;12870;52.274;9.754;2024-01-07T00:59:16;1.30;99.90
24772;DHT22;12870;52.274;9.754;2024-01-07T01:01:41;1.40;99.90
24772;DHT22;12870;52.274;9.754;2024-01-07T01:04:07;1.30;99.90
24772;DHT22;12870;52.274;9.754;2024-01-07T01:06:32;1.30;99.90
24772;DHT22;12870;52.274;9.754;2024-01-07T01:08:58;1.40;99.90
24772;DHT22;12870;52.274;9.754;2024-01-07T01:11:23;1.30;99.90
24772;DHT22;12870;52.274;9.754;2024-01-07T01:13:49;1.30;99.90
24772;DHT22;12870;52.274;9.754;2024-01-07T01:16:14;1.30;99.90
24772;DHT22;12870;52.274;9.754;2024-01-07T01:18:40;1.20;99.90
24772;DHT22;12870;52.274;9.754;2024-01-07T01:21:05;1.20;99.90
24772;DHT22;12870;52.274;9.754;2024-01-07T01:23:31;1.20;99.90
24772;DHT22;12870;52.274;9.754;2024-01-07T01:25:56;1.20;99.90
24772;DHT22;12870;52.274;9.754;2024-01-07T01:28:22;1.20;99.90
24772;DHT22;12870;52.274;9.754;2024-01-07T01:30:47;1.20;99.90
24772;DHT22;12870;52.274;9.754;2024-01-07T01:33:13;1.10;99.90
24772;DHT22;12870;52.274;9.754;2024-01-07T01:35:38;1.10;99.90
24772;DHT22;12870;52.274;9.754;2024-01-07T01:38:04;1.00;99.90
24772;DHT22;12870;52.274;9.754;2024-01-07T01:40:29;1.00;99.90
24772;DHT22;12870;52.274;9.754;2024-01-07T01:42:55;1.00;99.90
24772;DHT22;12870;52.274;9.754;2024-01-07T01:45:20;1.00;99.90
24772;DHT22;12870;52.274;9.754;2024-01-07T01:47:46;1.00;99.90
24772;DHT22;12870;52.274;9.754;2024-01-07T01:50:12;1.10;99.90
24772;DHT22;12870;52.274;9.754;2024-01-07T01:52:38;1.10;99.90
24772;DHT22;12870;52.274;9.754;2024-01-07T01:55:04;1.10;99.90
24772;DHT22;12870;52.274;9.754;2024-01-07T01:57:33;1.10;99.90
24772;DHT22;12870;52.274;9.754;2024-01-07T02:00:03;1.00;99.90
24772;DHT22;12870;52.274;9.754;2024-01-07T02:02:33;1.00;99.90
24772;DHT22;12870;52.274;9.754;2024-01-07T02:05:03;0.90;99.90
24772;DHT22;12870;52.274;9.754;2024-01-07T02:07:30;0.90;99.90
24772;DHT22;12870;52.274;9.754;2024-01-07T02:09:56;1.00;99.90
24772;DHT22;12870;52.274;9.754;2024-01-07T02:12:21;0.90;99.90
24772;DHT22;12870;52.274;9.754;2024-01-07T02:14:47;0.90;99.90
24772;DHT22;12870;52.274;9.754;2024-01-07T02:17:13;1.00;99.90
24772;DHT22;12870;52.274;9.754;2024-01-07T02:19:39;1.00;99.90
24772;DHT22;12870;52.274;9.754;2024-01-07T02:22:05;1.00;99.90
24772;DHT22;12870;52.274;9.754;2024-01-07T02:24:30;0.90;99.90
24772;DHT22;12870;52.274;9.754;2024-01-07T02:26:56;1.00;99.90
24772;DHT22;12870;52.274;9.754;2024-01-07T02:29:22;1.10;99.90
24772;DHT22;12870;52.274;9.754;2024-01-07T02:31:47;1.10;99.90
24772;DHT22;12870;52.274;9.754;2024-01-07T02:34:13;1.10;99.90
24772;DHT22;12870;52.274;9.754;2024-01-07T02:36:39;1.10;99.90
24772;DHT22;12870;52.274;9.754;2024-01-07T02:39:04;1.10;99.90
24772;DHT22;12870;52.274;9.754;2024-01-07T02:41:30;1.00;99.90
24772;DHT22;12870;52.274;9.754;2024-01-07T02:43:55;1.00;99.90
24772;DHT22;12870;52.274;9.754;2024-01-07T02:46:23;1.00;99.90
24772;DHT22;12870;52.274;9.754;2024-01-07T02:48:48;1.00;99.90
24772;DHT22;12870;52.274;9.754;2024-01-07T02:51:14;0.90;99.90
24772;DHT22;12870;52.274;9.754;2024-01-07T02:53:39;0.80;99.90
24772;DHT22;12870;52.274;9.754;2024-01-07T02:56:05;0.80;99.90
24772;DHT22;12870;52.274;9.754;2024-01-07T02:58:31;0.80;99.90
24772;DHT22;12870;52.274;9.754;2024-01-07T03:00:56;0.80;99.90
24772;DHT22;12870;52.274;9.754;2024-01-07T03:03:22;0.70;99.90
24772;DHT22;12870;52.274;9.754;2024-01-07T03:05:48;0.70;99.90
24772;DHT22;12870;52.274;9.754;2024-01-07T03:08:14;0.80;99.90
24772;DHT22;12870;52.274;9.754;2024-01-07T03:10:39;0.80;99.90
24772;DHT22;12870;52.274;9.754;2024-01-07T03:13:05;0.70;99.90
24772;DHT22;12870;52.274;9.754;2024-01-07T03:15:30;0.70;99.90
24772;DHT22;12870;52.274;9.754;2024-01-07T03:17:57;0.80;99.90
24772;DHT22;12870;52.274;9.754;2024-01-07T03:20:23;0.70;99.90
24772;DHT22;12870;52.274;9.754;2024-01-07T03:22:48;0.70;99.90
24772;DHT22;12870;52.274;9.754;2024-01-07T03:25:14;0.50;99.90
24772;DHT22;12870;52.274;9.754;2024-01-07T03:27:39;0.50;99.90
24772;DHT22;12870;52.274;9.754;2024-01-07T03:30:05;0.60;99.90
24772;DHT22;12870;52.274;9.754;2024-01-07T03:32:31;0.60;99.90
24772;DHT22;12870;52.274;9.754;2024-01-07T03:34:56;0.60;99.90
24772;DHT22;12870;52.274;9.754;2024-01-07T03:37:22;0.60;99.90
24772;DHT22;12870;52.274;9.754;2024-01-07T03:39:47;0.60;99.90
24772;DHT22;12870;52.274;9.754;2024-01-07T03:42:13;0.50;99.90
24772;DHT22;12870;52.274;9.754;2024-01-07T03:44:39;0.60;99.90
24772;DHT22;12870;52.274;9.754;2024-01-07T03:47:05;0.50;99.90
24772;DHT22;12870;52.274;9.754;2024-01-07T03:49:31;0.50;99.90
24772;DHT22;12870;52.274;9.754;2024-01-07T03:51:56;0.50;99.90
24772;DHT22;12870;52.274;9.754;2024-01-07T03:54:22;0.50;99.90
24772;DHT22;12870;52.274;9.754;2024-01-07T03:56:47;0.50;99.90
24772;DHT22;12870;52.274;9.754;2024-01-07T03:59:13;0.50;99.90
24772;DHT22;12870;52.274;9.754;2024-01-07T04:01:39;0.50;99.90
24772;DHT22;12870;52.274;9.754;2024-01-07T04:04:04;0.50;99.90
24772;DHT22;12870;52.274;9.754;2024-01-07T04:06:30;0.50;99.90
24772;DHT22;12870;52.274;9.754;2024-01-07T04:08:55;0.50;99.90
24772;DHT22;12870;52.274;9.754;2024-01-07T04:11:21;0.50;99.90
24772;DHT22;12870;52.274;9.754;2024-01-07T04:13:47;0.60;99.90
24772;DHT22;12870;52.274;9.754;2024-01-07T04:16:16;0.50;99.90
24772;DHT22;12870;52.274;9.754;2024-01-07T04:18:42;0.50;99.90
24772;DHT22;12870;52.274;9.754;2024-01-07T04:21:11;0.40;99.90
24772;DHT22;12870;52.274;9.754;2024-01-07T04:23:39;0.50;99.90
24772;DHT22;12870;52.274;9.754;2024-01-07T04:26:06;0.50;99.90
24772;DHT22;12870;52.274;9.754;2024-01-07T04:28:32;0.60;99.90
24772;DHT22;12870;52.274;9.754;2024-01-07T04:30:57;0.50;99.90
24772;DHT22;12870;52.274;9.754;2024-01-07T04:33:23;0.50;99.90
24772;DHT22;12870;52.274;9.754;2024-01-07T04:35:48;0.40;99.90
24772;DHT22;12870;52.274;9.754;2024-01-07T04:38:14;0.40;99.90
24772;DHT22;12870;52.274;9.754;2024-01-07T04:40:39;0.40;99.90
24772;DHT22;12870;52.274;9.754;2024-01-07T04:43:05;0.50;99.90
24772;DHT22;12870;52.274;9.754;2024-01-07T04:45:30;0.50;99.90
24772;DHT22;12870;52.274;9.754;2024-01-07T04:47:56;0.50;99.90
24772;DHT22;12870;52.274;9.754;2024-01-07T04:50:21;0.50;99.90
24772;DHT22;12870;52.274;9.754;2024-01-07T04:52:47;0.40;99.90
24772;DHT22;12870;52.274;9.754;2024-01-07T04:55:13;0.40;99.90
24772;DHT22;12870;52.274;9.754;2024-01-07T04:57:38;0.40;99.90
24772;DHT22;12870;52.274;9.754;2024-01-07T05:00:04;0.40;99.90
24772;DHT22;12870;52.274;9.754;2024-01-07T05:02:30;0.50;99.90
24772;DHT22;12870;52.274;9.754;2024-01-07T05:04:55;0.40;99.90
24772;DHT22;12870;52.274;9.754;2024-01-07T05:07:21;0.30;99.90
24772;DHT22;12870;52.274;9.754;2024-01-07T05:09:46;0.40;99.90
24772;DHT22;12870;52.274;9.754;2024-01-07T05:12:12;0.40;99.90
24772;DHT22;12870;52.274;9.754;2024-01-07T05:14:37;0.40;99.90
24772;DHT22;12870;52.274;9.754;2024-01-07T05:17:03;0.40;99.90
24772;DHT22;12870;52.274;9.754;2024-01-07T05:19:29;0.40;99.90
24772;DHT22;12870;52.274;9.754;2024-01-07T05:21:55;0.50;99.90
24772;DHT22;12870;52.274;9.754;2024-01-07T05:24:21;0.40;99.90
24772;DHT22;12870;52.274;9.754;2024-01-07T05:26:47;0.40;99.90
24772;DHT22;12870;52.274;9.754;2024-01-07T05:29:12;0.40;99.90
24772;DHT22;12870;52.274;9.754;2024-01-07T05:31:39;0.40;99.90
24772;DHT22;12870;52.274;9.754;2024-01-07T05:34:05;0.40;99.90
24772;DHT22;12870;52.274;9.754;2024-01-07T05:36:31;0.40;99.90
24772;DHT22;12870;52.274;9.754;2024-01-07T05:38:56;0.40;99.90
24772;DHT22;12870;52.274;9.754;2024-01-07T05:41:22;0.30;99.90
24772;DHT22;12870;52.274;9.754;2024-01-07T05:43:48;0.20;99.90
24772;DHT22;12870;52.274;9.754;2024-01-07T05:46:14;0.30;99.90
24772;DHT22;12870;52.274;9.754;2024-01-07T05:48:43;0.40;99.90
24772;DHT22;12870;52.274;9.754;2024-01-07T05:51:09;0.20;99.90
24772;DHT22;12870;52.274;9.754;2024-01-07T05:53:35;0.20;99.90
24772;DHT22;12870;52.274;9.754;2024-01-07T05:56:01;0.20;99.90
24772;DHT22;12870;52.274;9.754;2024-01-07T05:58:26;0.20;99.90
24772;DHT22;12870;52.274;9.754;2024-01-07T06:00:52;0.20;99.90
24772;DHT22;12870;52.274;9.754;2024-01-07T06:03:17;0.20;99.90
24772;DHT22;12870;52.274;9.754;2024-01-07T06:05:43;0.10;99.90
24772;DHT22;12870;52.274;9.754;2024-01-07T06:08:08;0.20;99.90
24772;DHT22;12870;52.274;9.754;2024-01-07T06:10:35;0.20;99.90
24772;DHT22;12870;52.274;9.754;2024-01-07T06:13:01;0.30;99.90
24772;DHT22;12870;52.274;9.754;2024-01-07T06:15:28;0.40;99.90
24772;DHT22;12870;52.274;9.754;2024-01-07T06:17:54;0.40;99.90
24772;DHT22;12870;52.274;9.754;2024-01-07T06:20:19;0.30;99.90
24772;DHT22;12870;52.274;9.754;2024-01-07T06:22:45;0.30;99.90
24772;DHT22;12870;52.274;9.754;2024-01-07T06:25:10;0.30;99.90
24772;DHT22;12870;52.274;9.754;2024-01-07T06:27:37;0.20;99.90
24772;DHT22;12870;52.274;9.754;2024-01-07T06:30:04;0.20;99.90
24772;DHT22;12870;52.274;9.754;2024-01-07T06:32:29;0.20;99.90
24772;DHT22;12870;52.274;9.754;2024-01-07T06:34:57;0.10;99.90
24772;DHT22;12870;52.274;9.754;2024-01-07T06:37:23;0.10;99.90
24772;DHT22;12870;52.274;9.754;2024-01-07T06:39:49;0.10;99.90
24772;DHT22;12870;52.274;9.754;2024-01-07T06:42:14;0.10;99.90
24772;DHT22;12870;52.274;9.754;2024-01-07T06:44:40;0.10;99.90
24772;DHT22;12870;52.274;9.754;2024-01-07T06:47:05;0.10;99.90
24772;DHT22;12870;52.274;9.754;2024-01-07T06:49:31;0.00;99.90
24772;DHT22;12870;52.274;9.754;2024-01-07T06:51:56;-0.10;99.90
24772;DHT22;12870;52.274;9.754;2024-01-07T06:54:22;-0.10;99.90
24772;DHT22;12870;52.274;9.754;2024-01-07T06:56:48;-0.10;99.90
24772;DHT22;12870;52.274;9.754;2024-01-07T06:59:13;-0.10;99.90
24772;DHT22;12870;52.274;9.754;2024-01-07T07:01:40;0.00;99.90
24772;DHT22;12870;52.274;9.754;2024-01-07T07:04:05;0.00;99.90
24772;DHT22;12870;52.274;9.754;2024-01-07T07:06:31;0.00;99.90
24772;DHT22;12870;52.274;9.754;2024-01-07T07:08:56;-0.10;99.90
24772;DHT22;12870;52.274;9.754;2024-01-07T07:11:22;-0.20;99.90
24772;DHT22;12870;52.274;9.754;2024-01-07T07:13:47;-0.20;99.90
24772;DHT22;12870;52.274;9.754;2024-01-07T07:16:13;-0.10;99.90
24772;DHT22;12870;52.274;9.754;2024-01-07T07:18:38;-0.10;99.90
24772;DHT22;12870;52.274;9.754;2024-01-07T07:21:04;-0.10;99.90
24772;DHT22;12870;52.274;9.754;2024-01-07T07:23:30;-0.10;99.90
24772;DHT22;12870;52.274;9.754;2024-01-07T07:25:56;-0.10;99.90
24772;DHT22;12870;52.274;9.754;2024-01-07T07:28:21;-0.10;99.90
24772;DHT22;12870;52.274;9.754;2024-01-07T07:30:47;-0.10;99.90
24772;DHT22;12870;52.274;9.754;2024-01-07T07:33:12;-0.10;99.90
24772;DHT22;12870;52.274;9.754;2024-01-07T07:35:39;-0.20;99.90
24772;DHT22;12870;52.274;9.754;2024-01-07T07:38:06;-0.20;99.90
24772;DHT22;12870;52.274;9.754;2024-01-07T07:40:31;-0.20;99.90
24772;DHT22;12870;52.274;9.754;2024-01-07T07:42:57;-0.20;99.90
24772;DHT22;12870;52.274;9.754;2024-01-07T07:45:23;-0.20;99.90
24772;DHT22;12870;52.274;9.754;2024-01-07T07:47:48;-0.10;99.90
24772;DHT22;12870;52.274;9.754;2024-01-07T07:50:14;-0.20;99.90
24772;DHT22;12870;52.274;9.754;2024-01-07T07:52:42;-0.20;99.90
24772;DHT22;12870;52.274;9.754;2024-01-07T07:55:09;-0.20;99.90
24772;DHT22;12870;52.274;9.754;2024-01-07T07:57:35;-0.30;99.90
24772;DHT22;12870;52.274;9.754;2024-01-07T08:00:00;-0.20;99.90
24772;DHT22;12870;52.274;9.754;2024-01-07T08:02:26;-0.20;99.90
24772;DHT22;12870;52.274;9.754;2024-01-07T08:04:52;-0.10;99.90
24772;DHT22;12870;52.274;9.754;2024-01-07T08:07:17;-0.20;99.90
24772;DHT22;12870;52.274;9.754;2024-01-07T08:09:43;-0.30;99.90
24772;DHT22;12870;52.274;9.754;2024-01-07T08:12:08;-0.20;99.90
24772;DHT22;12870;52.274;9.754;2024-01-07T08:14:34;-0.20;99.90
24772;DHT22;12870;52.274;9.754;2024-01-07T08:17:00;-0.20;99.90
24772;DHT22;12870;52.274;9.754;2024-01-07T08:19:26;-0.20;99.90
24772;DHT22;12870;52.274;9.754;2024-01-07T08:21:52;-0.10;99.90
24772;DHT22;12870;52.274;9.754;2024-01-07T08:24:18;-0.10;99.90
24772;DHT22;12870;52.274;9.754;2024-01-07T08:26:44;-0.10;99.90
24772;DHT22;12870;52.274;9.754;2024-01-07T08:29:09;-0.10;99.90
24772;DHT22;12870;52.274;9.754;2024-01-07T08:31:35;-0.10;99.90
24772;DHT22;12870;52.274;9.754;2024-01-07T08:34:00;-0.10;99.90
24772;DHT22;12870;52.274;9.754;2024-01-07T08:36:26;0.00;99.90
24772;DHT22;12870;52.274;9.754;2024-01-07T08:38:52;0.00;99.90
24772;DHT22;12870;52.274;9.754;2024-01-07T08:41:17;0.00;99.90
24772;DHT22;12870;52.274;9.754;2024-01-07T08:43:43;0.00;99.90
24772;DHT22;12870;52.274;9.754;2024-01-07T08:46:10;0.10;99.90
24772;DHT22;12870;52.274;9.754;2024-01-07T08:48:36;0.00;99.90
24772;DHT22;12870;52.274;9.754;2024-01-07T08:51:02;0.10;99.90
24772;DHT22;12870;52.274;9.754;2024-01-07T08:53:28;0.10;99.90
24772;DHT22;12870;52.274;9.754;2024-01-07T08:55:54;0.10;99.90
24772;DHT22;12870;52.274;9.754;2024-01-07T08:58:19;0.10;99.90
24772;DHT22;12870;52.274;9.754;2024-01-07T09:00:45;0.20;99.90
24772;DHT22;12870;52.274;9.754;2024-01-07T09:03:11;0.30;99.90
24772;DHT22;12870;52.274;9.754;2024-01-07T09:05:36;0.20;99.90
24772;DHT22;12870;52.274;9.754;2024-01-07T09:08:02;0.20;99.90
24772;DHT22;12870;52.274;9.754;2024-01-07T09:10:28;0.20;99.90
24772;DHT22;12870;52.274;9.754;2024-01-07T09:12:53;0.20;99.90
24772;DHT22;12870;52.274;9.754;2024-01-07T09:15:19;0.20;99.90
24772;DHT22;12870;52.274;9.754;2024-01-07T09:17:46;0.30;99.90
24772;DHT22;12870;52.274;9.754;2024-01-07T09:20:12;0.30;99.90
24772;DHT22;12870;52.274;9.754;2024-01-07T09:22:38;0.20;99.90
24772;DHT22;12870;52.274;9.754;2024-01-07T09:25:05;0.30;99.90
24772;DHT22;12870;52.274;9.754;2024-01-07T09:27:31;0.20;99.90
24772;DHT22;12870;52.274;9.754;2024-01-07T09:29:56;0.30;99.90
24772;DHT22;12870;52.274;9.754;2024-01-07T09:32:22;0.40;99.90
24772;DHT22;12870;52.274;9.754;2024-01-07T09:34:48;0.40;99.90
24772;DHT22;12870;52.274;9.754;2024-01-07T09:37:13;0.50;99.90
24772;DHT22;12870;52.274;9.754;2024-01-07T09:39:40;0.50;99.90
24772;DHT22;12870;52.274;9.754;2024-01-07T09:42:12;0.40;99.90
24772;DHT22;12870;52.274;9.754;2024-01-07T09:44:38;0.50;99.90
24772;DHT22;12870;52.274;9.754;2024-01-07T09:47:05;0.50;99.90
24772;DHT22;12870;52.274;9.754;2024-01-07T09:49:32;0.50;99.90
24772;DHT22;12870;52.274;9.754;2024-01-07T09:51:59;0.60;99.90
24772;DHT22;12870;52.274;9.754;2024-01-07T09:54:27;0.60;99.90
24772;DHT22;12870;52.274;9.754;2024-01-07T09:57:01;0.70;99.90
24772;DHT22;12870;52.274;9.754;2024-01-07T09:59:30;0.60;99.90
24772;DHT22;12870;52.274;9.754;2024-01-07T10:01:58;0.60;99.90
24772;DHT22;12870;52.274;9.754;2024-01-07T10:04:25;0.60;99.90
24772;DHT22;12870;52.274;9.754;2024-01-07T10:06:52;0.60;99.90
24772;DHT22;12870;52.274;9.754;2024-01-07T10:09:20;0.60;99.90
24772;DHT22;12870;52.274;9.754;2024-01-07T10:11:47;0.60;99.90
24772;DHT22;12870;52.274;9.754;2024-01-07T10:14:13;0.60;99.90
24772;DHT22;12870;52.274;9.754;2024-01-07T10:16:39;0.60;99.90
24772;DHT22;12870;52.274;9.754;2024-01-07T10:19:04;0.60;99.90
24772;DHT22;12870;52.274;9.754;2024-01-07T10:21:30;0.50;99.90
24772;DHT22;12870;52.274;9.754;2024-01-07T10:24:11;0.50;99.90
24772;DHT22;12870;52.274;9.754;2024-01-07T10:26:41;0.60;99.90
24772;DHT22;12870;52.274;9.754;2024-01-07T10:29:07;0.60;99.90
24772;DHT22;12870;52.274;9.754;2024-01-07T10:31:38;0.70;99.90
24772;DHT22;12870;52.274;9.754;2024-01-07T10:34:07;0.70;99.90
24772;DHT22;12870;52.274;9.754;2024-01-07T10:36:34;0.70;99.90
24772;DHT22;12870;52.274;9.754;2024-01-07T10:39:00;0.80;99.90
24772;DHT22;12870;52.274;9.754;2024-01-07T10:41:26;0.80;99.90
24772;DHT22;12870;52.274;9.754;2024-01-07T10:43:53;0.70;99.90
24772;DHT22;12870;52.274;9.754;2024-01-07T10:46:20;0.80;99.90
24772;DHT22;12870;52.274;9.754;2024-01-07T10:48:54;0.80;99.90
24772;DHT22;12870;52.274;9.754;2024-01-07T10:51:21;0.90;99.90
24772;DHT22;12870;52.274;9.754;2024-01-07T10:53:52;0.90;99.90
24772;DHT22;12870;52.274;9.754;2024-01-07T10:56:23;0.90;99.90
24772;DHT22;12870;52.274;9.754;2024-01-07T10:58:52;0.90;99.90
24772;DHT22;12870;52.274;9.754;2024-01-07T11:01:19;0.90;99.90
24772;DHT22;12870;52.274;9.754;2024-01-07T11:04:23;0.80;99.90
24772;DHT22;12870;52.274;9.754;2024-01-07T11:07:00;0.80;99.90
24772;DHT22;12870;52.274;9.754;2024-01-07T11:09:47;0.80;99.90
24772;DHT22;12870;52.274;9.754;2024-01-07T11:12:16;0.90;99.90
24772;DHT22;12870;52.274;9.754;2024-01-07T11:14:43;0.90;99.90
24772;DHT22;12870;52.274;9.754;2024-01-07T11:20:23;1.00;99.90
24772;DHT22;12870;52.274;9.754;2024-01-07T11:22:52;1.00;99.90
24772;DHT22;12870;52.274;9.754;2024-01-07T11:25:36;1.00;99.90
24772;DHT22;12870;52.274;9.754;2024-01-07T11:28:05;1.10;99.90
24772;DHT22;12870;52.274;9.754;2024-01-07T11:30:38;1.10;99.90
24772;DHT22;12870;52.274;9.754;2024-01-07T11:33:04;1.00;99.90
24772;DHT22;12870;52.274;9.754;2024-01-07T11:36:02;1.10;99.90
24772;DHT22;12870;52.274;9.754;2024-01-07T11:38:28;1.20;99.90
24772;DHT22;12870;52.274;9.754;2024-01-07T11:40:54;1.20;99.90
24772;DHT22;12870;52.274;9.754;2024-01-07T11:43:21;1.20;99.90
24772;DHT22;12870;52.274;9.754;2024-01-07T11:45:49;1.20;99.90
24772;DHT22;12870;52.274;9.754;2024-01-07T11:48:14;1.20;99.90
24772;DHT22;12870;52.274;9.754;2024-01-07T11:50:41;1.20;99.90
24772;DHT22;12870;52.274;9.754;2024-01-07T11:53:07;1.20;99.90
24772;DHT22;12870;52.274;9.754;2024-01-07T11:55:33;1.20;99.90
24772;DHT22;12870;52.274;9.754;2024-01-07T11:58:01;1.20;99.90
24772;DHT22;12870;52.274;9.754;2024-01-07T12:00:27;1.30;99.90
24772;DHT22;12870;52.274;9.754;2024-01-07T12:02:53;1.30;99.90
24772;DHT22;12870;52.274;9.754;2024-01-07T12:05:18;1.30;99.90
24772;DHT22;12870;52.274;9.754;2024-01-07T12:07:44;1.40;99.90
24772;DHT22;12870;52.274;9.754;2024-01-07T12:10:10;1.40;99.90
24772;DHT22;12870;52.274;9.754;2024-01-07T12:12:40;1.40;99.90
24772;DHT22;12870;52.274;9.754;2024-01-07T12:15:07;1.30;99.90
24772;DHT22;12870;52.274;9.754;2024-01-07T12:17:33;1.40;99.90
24772;DHT22;12870;52.274;9.754;2024-01-07T12:20:00;1.40;99.90
24772;DHT22;12870;52.274;9.754;2024-01-07T12:22:28;1.40;99.90
24772;DHT22;12870;52.274;9.754;2024-01-07T12:25:05;1.40;99.90
24772;DHT22;12870;52.274;9.754;2024-01-07T12:27:31;1.40;99.90
24772;DHT22;12870;52.274;9.754;2024-01-07T12:29:58;1.40;99.90
24772;DHT22;12870;52.274;9.754;2024-01-07T12:32:35;1.50;99.90
24772;DHT22;12870;52.274;9.754;2024-01-07T12:35:01;1.50;99.90
24772;DHT22;12870;52.274;9.754;2024-01-07T12:37:27;1.50;99.90
24772;DHT22;12870;52.274;9.754;2024-01-07T12:39:53;1.50;99.90
24772;DHT22;12870;52.274;9.754;2024-01-07T12:42:19;1.50;99.90
24772;DHT22;12870;52.274;9.754;2024-01-07T12:44:45;1.40;99.90
24772;DHT22;12870;52.274;9.754;2024-01-07T12:47:11;1.40;99.90
24772;DHT22;12870;52.274;9.754;2024-01-07T12:49:36;1.40;99.90
24772;DHT22;12870;52.274;9.754;2024-01-07T12:52:02;1.50;99.90
24772;DHT22;12870;52.274;9.754;2024-01-07T12:54:27;1.40;99.90
24772;DHT22;12870;52.274;9.754;2024-01-07T12:56:53;1.50;99.90
24772;DHT22;12870;52.274;9.754;2024-01-07T12:59:18;1.50;99.90
24772;DHT22;12870;52.274;9.754;2024-01-07T13:01:44;1.50;99.90
24772;DHT22;12870;52.274;9.754;2024-01-07T13:04:09;1.50;99.90
24772;DHT22;12870;52.274;9.754;2024-01-07T13:06:35;1.50;99.90
24772;DHT22;12870;52.274;9.754;2024-01-07T13:09:01;1.50;99.90
24772;DHT22;12870;52.274;9.754;2024-01-07T13:11:29;1.50;99.90
24772;DHT22;12870;52.274;9.754;2024-01-07T13:13:55;1.50;99.90
24772;DHT22;12870;52.274;9.754;2024-01-07T13:16:25;1.50;99.90
24772;DHT22;12870;52.274;9.754;2024-01-07T13:18:51;1.50;99.90
24772;DHT22;12870;52.274;9.754;2024-01-07T13:21:17;1.60;99.90
24772;DHT22;12870;52.274;9.754;2024-01-07T13:23:43;1.60;99.90
24772;DHT22;12870;52.274;9.754;2024-01-07T13:26:12;1.60;99.90
24772;DHT22;12870;52.274;9.754;2024-01-07T13:28:38;1.60;99.90
24772;DHT22;12870;52.274;9.754;2024-01-07T13:31:04;1.60;99.90
24772;DHT22;12870;52.274;9.754;2024-01-07T13:33:29;1.60;99.90
24772;DHT22;12870;52.274;9.754;2024-01-07T13:35:55;1.60;99.90
24772;DHT22;12870;52.274;9.754;2024-01-07T13:38:21;1.60;99.90
24772;DHT22;12870;52.274;9.754;2024-01-07T13:40:47;1.70;99.90
24772;DHT22;12870;52.274;9.754;2024-01-07T13:43:12;1.70;99.90
24772;DHT22;12870;52.274;9.754;2024-01-07T13:45:38;1.70;99.90
24772;DHT22;12870;52.274;9.754;2024-01-07T13:48:04;1.80;99.90
24772;DHT22;12870;52.274;9.754;2024-01-07T13:50:30;1.70;99.90
24772;DHT22;12870;52.274;9.754;2024-01-07T13:52:55;1.70;99.90
24772;DHT22;12870;52.274;9.754;2024-01-07T13:55:21;1.80;99.90
24772;DHT22;12870;52.274;9.754;2024-01-07T13:57:46;1.70;99.90
24772;DHT22;12870;52.274;9.754;2024-01-07T14:00:12;1.70;99.90
24772;DHT22;12870;52.274;9.754;2024-01-07T14:02:43;1.70;99.90
24772;DHT22;12870;52.274;9.754;2024-01-07T14:05:11;1.80;99.90
24772;DHT22;12870;52.274;9.754;2024-01-07T14:07:37;1.90;99.90
24772;DHT22;12870;52.274;9.754;2024-01-07T14:10:04;1.90;99.90
24772;DHT22;12870;52.274;9.754;2024-01-07T14:12:31;1.80;99.90
24772;DHT22;12870;52.274;9.754;2024-01-07T14:14:57;1.90;99.90
24772;DHT22;12870;52.274;9.754;2024-01-07T14:17:22;1.80;99.90
24772;DHT22;12870;52.274;9.754;2024-01-07T14:19:48;1.90;99.90
24772;DHT22;12870;52.274;9.754;2024-01-07T14:22:13;1.90;99.90
24772;DHT22;12870;52.274;9.754;2024-01-07T14:24:39;1.90;99.90
24772;DHT22;12870;52.274;9.754;2024-01-07T14:27:05;1.90;99.90
24772;DHT22;12870;52.274;9.754;2024-01-07T14:29:30;1.90;99.90
24772;DHT22;12870;52.274;9.754;2024-01-07T14:31:56;1.90;99.90
24772;DHT22;12870;52.274;9.754;2024-01-07T14:34:21;1.80;99.90
24772;DHT22;12870;52.274;9.754;2024-01-07T14:36:47;1.70;99.90
24772;DHT22;12870;52.274;9.754;2024-01-07T14:39:12;1.60;99.90
24772;DHT22;12870;52.274;9.754;2024-01-07T14:41:41;1.60;99.90
24772;DHT22;12870;52.274;9.754;2024-01-07T14:44:06;1.50;99.90
24772;DHT22;12870;52.274;9.754;2024-01-07T14:46:32;1.50;99.90
24772;DHT22;12870;52.274;9.754;2024-01-07T14:48:57;1.40;99.90
24772;DHT22;12870;52.274;9.754;2024-01-07T14:51:23;1.40;99.90
24772;DHT22;12870;52.274;9.754;2024-01-07T14:53:48;1.30;99.90
24772;DHT22;12870;52.274;9.754;2024-01-07T14:56:14;1.30;99.90
24772;DHT22;12870;52.274;9.754;2024-01-07T14:58:39;1.30;99.90
24772;DHT22;12870;52.274;9.754;2024-01-07T15:01:06;1.30;99.90
24772;DHT22;12870;52.274;9.754;2024-01-07T15:03:32;1.30;99.90
24772;DHT22;12870;52.274;9.754;2024-01-07T15:05:57;1.20;99.90
24772;DHT22;12870;52.274;9.754;2024-01-07T15:08:23;1.20;99.90
24772;DHT22;12870;52.274;9.754;2024-01-07T15:10:49;1.20;99.90
24772;DHT22;12870;52.274;9.754;2024-01-07T15:13:14;1.20;99.90
24772;DHT22;12870;52.274;9.754;2024-01-07T15:15:40;1.20;99.90
24772;DHT22;12870;52.274;9.754;2024-01-07T15:18:06;1.10;99.90
24772;DHT22;12870;52.274;9.754;2024-01-07T15:20:32;1.10;99.90
24772;DHT22;12870;52.274;9.754;2024-01-07T15:22:57;1.10;99.90
24772;DHT22;12870;52.274;9.754;2024-01-07T15:25:23;1.00;99.90
24772;DHT22;12870;52.274;9.754;2024-01-07T15:27:48;1.00;99.90
24772;DHT22;12870;52.274;9.754;2024-01-07T15:30:14;0.90;99.90
24772;DHT22;12870;52.274;9.754;2024-01-07T15:32:39;0.90;99.90
24772;DHT22;12870;52.274;9.754;2024-01-07T15:35:06;0.80;99.90
24772;DHT22;12870;52.274;9.754;2024-01-07T15:37:32;0.80;99.90
24772;DHT22;12870;52.274;9.754;2024-01-07T15:39:58;0.90;99.90
24772;DHT22;12870;52.274;9.754;2024-01-07T15:42:24;0.80;99.90